createdAt,value
2023-03-16T03:30:16.908Z,0.66
2023-03-16T03:31:17.943Z,0.59
2023-03-16T03:32:17.879Z,0.73
2023-03-16T03:33:17.881Z,0.81
2023-03-16T03:34:17.849Z,0.70
2023-03-16T03:35:17.834Z,0.74
2023-03-16T03:36:17.825Z,0.70
2023-03-16T03:37:17.813Z,0.71
2023-03-16T03:38:17.828Z,0.70
2023-03-16T03:39:17.802Z,0.74
2023-03-16T03:40:17.804Z,0.74
2023-03-16T03:41:17.770Z,0.81
2023-03-16T03:42:17.766Z,0.91
2023-03-16T03:43:17.772Z,0.86
2023-03-16T03:44:17.749Z,0.81
2023-03-16T03:45:17.734Z,0.82
2023-03-16T03:46:17.844Z,0.78
2023-03-16T03:47:17.712Z,0.78
2023-03-16T03:48:17.719Z,0.86
2023-03-16T03:49:17.701Z,0.89
2023-03-16T03:50:17.679Z,0.91
2023-03-16T03:51:17.696Z,0.89
2023-03-16T03:52:17.664Z,0.81
2023-03-16T03:53:17.646Z,0.77
2023-03-16T03:54:17.661Z,0.78
2023-03-16T03:55:17.627Z,0.77
2023-03-16T03:56:17.624Z,0.78
2023-03-16T03:57:17.606Z,0.70
2023-03-16T03:58:17.606Z,0.71
2023-03-16T03:59:17.610Z,0.71
2023-03-16T04:00:17.577Z,0.63
2023-03-16T04:01:17.568Z,0.58
2023-03-16T04:02:17.660Z,0.56
2023-03-16T04:03:17.741Z,0.64
2023-03-16T04:04:17.561Z,0.61
2023-03-16T04:05:17.524Z,0.66
2023-03-16T04:06:17.515Z,0.73
2023-03-16T04:07:17.517Z,0.71
2023-03-16T04:08:17.519Z,0.73
2023-03-16T04:09:17.489Z,0.76
2023-03-16T04:10:17.493Z,0.81
2023-03-16T04:11:17.464Z,0.84
2023-03-16T04:12:17.450Z,0.86
2023-03-16T04:13:17.445Z,0.85
2023-03-16T04:14:17.446Z,0.68
2023-03-16T04:15:17.424Z,0.70
2023-03-16T04:16:17.476Z,0.76
2023-03-16T04:17:17.410Z,0.76
2023-03-16T04:18:17.392Z,0.63
2023-03-16T04:19:17.395Z,0.66
2023-03-16T04:20:17.380Z,0.73
2023-03-16T04:21:17.366Z,0.76
2023-03-16T04:22:17.365Z,0.74
2023-03-16T04:23:17.359Z,0.74
2023-03-16T04:24:17.346Z,0.82
2023-03-16T04:25:17.320Z,0.82
2023-03-16T04:26:17.323Z,0.82
2023-03-16T04:27:17.300Z,0.74
2023-03-16T04:28:17.290Z,0.76
2023-03-16T04:29:17.310Z,0.70
2023-03-16T04:30:17.275Z,0.67
2023-03-16T04:31:17.321Z,0.71
2023-03-16T04:32:17.247Z,0.71
2023-03-16T04:33:17.238Z,0.74
2023-03-16T04:34:17.250Z,0.77
2023-03-16T04:35:17.211Z,0.76
2023-03-16T04:36:17.213Z,0.78
2023-03-16T04:37:17.193Z,0.86
2023-03-16T04:38:17.186Z,0.85
2023-03-16T04:39:17.183Z,0.91
2023-03-16T04:40:17.165Z,0.94
2023-03-16T04:41:17.155Z,0.99
2023-03-16T04:42:17.154Z,1.02
2023-03-16T04:43:17.131Z,1.09
2023-03-16T04:44:17.138Z,1.02
2023-03-16T04:45:17.117Z,0.88
2023-03-16T04:46:17.217Z,0.86
2023-03-16T04:47:17.090Z,0.85
2023-03-16T04:48:17.113Z,0.91
2023-03-16T04:49:17.082Z,0.89
2023-03-16T04:50:17.066Z,0.91
2023-03-16T04:51:17.102Z,0.89
2023-03-16T04:52:17.101Z,0.92
2023-03-16T04:53:17.043Z,0.71
2023-03-16T04:54:17.057Z,0.61
2023-03-16T04:55:17.010Z,0.63
2023-03-16T04:56:17.013Z,0.67
2023-03-16T04:57:16.985Z,0.71
2023-03-16T04:58:16.984Z,0.73
2023-03-16T04:59:16.984Z,0.81
2023-03-16T05:00:16.964Z,0.78
2023-03-16T05:01:16.916Z,0.74
2023-03-16T05:02:16.960Z,0.68
2023-03-16T05:03:16.922Z,0.67
2023-03-16T05:04:19.606Z,0.71
2023-03-16T05:05:16.931Z,0.78
2023-03-16T05:06:16.845Z,0.86
2023-03-16T05:07:16.837Z,0.89
2023-03-16T05:08:16.881Z,0.88
2023-03-16T05:09:16.878Z,0.85
2023-03-16T05:10:16.857Z,0.82
2023-03-16T05:11:16.808Z,0.61
2023-03-16T05:12:16.782Z,0.61
2023-03-16T05:13:16.784Z,0.61
2023-03-16T05:14:16.826Z,0.66
2023-03-16T05:15:16.826Z,0.66
2023-03-16T05:16:16.867Z,0.67
2023-03-16T05:17:16.729Z,0.73
2023-03-16T05:18:16.728Z,0.77
2023-03-16T05:19:16.716Z,0.74
2023-03-16T05:20:16.835Z,0.74
2023-03-16T05:21:16.696Z,0.77
2023-03-16T05:22:16.683Z,0.84
2023-03-16T05:23:16.683Z,0.85
2023-03-16T05:24:16.671Z,0.84
2023-03-16T05:25:16.672Z,0.85
2023-03-16T05:26:16.644Z,0.89
2023-03-16T05:27:16.644Z,0.74
2023-03-16T05:28:16.612Z,0.70
2023-03-16T05:29:16.639Z,0.73
2023-03-16T05:30:16.605Z,0.76
2023-03-16T05:31:16.707Z,0.86
2023-03-16T05:32:16.573Z,0.94
2023-03-16T05:33:16.590Z,0.92
2023-03-16T05:34:16.561Z,0.96
2023-03-16T05:35:16.555Z,1.03
2023-03-16T05:36:16.537Z,1.06
2023-03-16T05:37:16.534Z,1.07
2023-03-16T05:38:16.512Z,1.04
2023-03-16T05:39:16.526Z,0.96
2023-03-16T05:40:16.488Z,0.86
2023-03-16T05:41:16.482Z,0.84
2023-03-16T05:42:16.478Z,0.94
2023-03-16T05:43:16.462Z,1.02
2023-03-16T05:44:16.468Z,0.96
2023-03-16T05:45:16.436Z,1.06
2023-03-16T05:46:17.902Z,1.18
2023-03-16T05:47:16.426Z,1.20
2023-03-16T05:48:16.427Z,1.25
2023-03-16T05:49:16.423Z,1.36
2023-03-16T05:50:16.388Z,1.38
2023-03-16T05:51:16.384Z,1.40
2023-03-16T05:52:16.362Z,1.43
2023-03-16T05:53:16.399Z,1.45
2023-03-16T05:54:16.359Z,1.42
2023-03-16T05:55:16.336Z,1.48
2023-03-16T05:56:16.321Z,1.48
2023-03-16T05:57:16.312Z,1.45
2023-03-16T05:58:16.301Z,1.39
2023-03-16T05:59:16.301Z,1.34
2023-03-16T06:00:16.361Z,1.36
2023-03-16T06:01:16.276Z,1.38
2023-03-16T06:02:16.251Z,1.32
2023-03-16T06:03:16.311Z,1.27
2023-03-16T06:04:16.297Z,1.28
2023-03-16T06:05:16.235Z,1.34
2023-03-16T06:06:16.213Z,1.42
2023-03-16T06:07:16.209Z,1.46
2023-03-16T06:08:16.201Z,1.49
2023-03-16T06:09:16.193Z,1.50
2023-03-16T06:10:16.170Z,1.57
2023-03-16T06:11:16.162Z,1.63
2023-03-16T06:12:16.150Z,1.70
2023-03-16T06:13:16.144Z,1.81
2023-03-16T06:14:16.143Z,1.84
2023-03-16T06:15:16.124Z,1.76
2023-03-16T06:16:16.194Z,1.81
2023-03-16T06:17:16.103Z,1.82
2023-03-16T06:18:16.091Z,1.84
2023-03-16T06:19:16.090Z,1.86
2023-03-16T06:20:16.065Z,1.88
2023-03-16T06:21:16.062Z,1.92
2023-03-16T06:22:16.083Z,1.95
2023-03-16T06:23:16.041Z,1.93
2023-03-16T06:24:16.036Z,1.88
2023-03-16T06:25:16.016Z,1.93
2023-03-16T06:26:16.010Z,2.00
2023-03-16T06:27:16.008Z,2.08
2023-03-16T06:28:15.988Z,2.14
2023-03-16T06:29:15.984Z,2.15
2023-03-16T06:30:15.979Z,2.14
2023-03-16T06:31:15.983Z,2.07
2023-03-16T06:32:15.943Z,2.01
2023-03-16T06:33:15.936Z,2.04
2023-03-16T06:34:15.939Z,2.05
2023-03-16T06:35:15.930Z,2.10
2023-03-16T06:36:15.931Z,2.01
2023-03-16T06:37:15.890Z,1.93
2023-03-16T06:38:15.878Z,1.93
2023-03-16T06:39:15.900Z,2.01
2023-03-16T06:40:15.859Z,2.05
2023-03-16T06:41:15.856Z,2.15
2023-03-16T06:42:15.844Z,2.30
2023-03-16T06:43:15.831Z,2.44
2023-03-16T06:44:15.836Z,2.46
2023-03-16T06:45:15.809Z,2.55
2023-03-16T06:46:15.844Z,2.62
2023-03-16T06:47:15.789Z,2.70
2023-03-16T06:48:15.785Z,2.76
2023-03-16T06:49:15.775Z,2.82
2023-03-16T06:50:15.773Z,2.88
2023-03-16T06:51:16.926Z,2.94
2023-03-16T06:52:15.724Z,3.03
2023-03-16T06:53:15.726Z,3.03
2023-03-16T06:54:15.720Z,3.05
2023-03-16T06:55:15.709Z,3.08
2023-03-16T06:56:15.697Z,3.11
2023-03-16T06:57:15.688Z,3.12
2023-03-16T06:58:15.666Z,3.16
2023-03-16T06:59:15.703Z,3.19
2023-03-16T07:00:15.694Z,3.26
2023-03-16T07:01:15.718Z,3.40
2023-03-16T07:02:15.652Z,3.49
2023-03-16T07:03:15.619Z,3.56
2023-03-16T07:04:15.660Z,3.64
2023-03-16T07:05:15.804Z,3.71
2023-03-16T07:06:15.577Z,3.84
2023-03-16T07:07:15.584Z,3.86
2023-03-16T07:08:15.577Z,3.78
2023-03-16T07:09:15.590Z,3.81
2023-03-16T07:10:15.554Z,3.85
2023-03-16T07:11:15.536Z,3.89
2023-03-16T07:12:15.534Z,3.99
2023-03-16T07:13:15.516Z,4.03
2023-03-16T07:14:15.511Z,4.07
2023-03-16T07:15:15.483Z,4.06
2023-03-16T07:16:15.579Z,3.99
2023-03-16T07:17:15.460Z,3.99
2023-03-16T07:18:15.443Z,4.02
2023-03-16T07:19:15.461Z,4.07
2023-03-16T07:20:15.435Z,4.14
2023-03-16T07:21:15.453Z,4.22
2023-03-16T07:22:15.403Z,4.31
2023-03-16T07:23:15.402Z,4.34
2023-03-16T07:24:15.399Z,4.38
2023-03-16T07:25:15.392Z,4.43
2023-03-16T07:26:15.379Z,4.50
2023-03-16T07:27:15.447Z,4.57
2023-03-16T07:28:15.347Z,4.63
2023-03-16T07:29:15.365Z,4.67
2023-03-16T07:30:15.321Z,4.78
2023-03-16T07:31:15.362Z,4.86
2023-03-16T07:32:15.296Z,4.98
2023-03-16T07:33:15.287Z,4.98
2023-03-16T07:34:15.287Z,4.95
2023-03-16T07:35:15.264Z,4.95
2023-03-16T07:36:15.333Z,4.97
2023-03-16T07:37:16.179Z,5.07
2023-03-16T07:38:15.251Z,5.10
2023-03-16T07:39:15.236Z,5.10
2023-03-16T07:40:15.245Z,5.15
2023-03-16T07:41:15.300Z,5.12
2023-03-16T07:42:15.198Z,5.20
2023-03-16T07:43:15.188Z,5.31
2023-03-16T07:44:15.203Z,5.33
2023-03-16T07:45:15.174Z,5.25
2023-03-16T07:46:15.236Z,5.31
2023-03-16T07:47:15.150Z,5.34
2023-03-16T07:48:15.123Z,5.40
2023-03-16T07:49:15.148Z,5.41
2023-03-16T07:50:15.115Z,5.43
2023-03-16T07:51:15.111Z,5.38
2023-03-16T07:52:15.092Z,5.54
2023-03-16T07:53:15.081Z,5.64
2023-03-16T07:54:15.064Z,5.76
2023-03-16T07:55:15.057Z,5.81
2023-03-16T07:56:15.035Z,5.74
2023-03-16T07:57:15.071Z,5.77
2023-03-16T07:58:15.018Z,5.80
2023-03-16T07:59:15.032Z,5.94
2023-03-16T08:00:14.991Z,5.99
2023-03-16T08:01:14.988Z,5.98
2023-03-16T08:02:15.015Z,6.01
2023-03-16T08:03:15.024Z,6.05
2023-03-16T08:04:14.967Z,6.01
2023-03-16T08:05:14.949Z,5.91
2023-03-16T08:06:14.931Z,5.87
2023-03-16T08:07:14.925Z,5.80
2023-03-16T08:08:14.907Z,5.90
2023-03-16T08:09:14.911Z,5.99
2023-03-16T08:10:14.884Z,6.06
2023-03-16T08:11:14.882Z,6.13
2023-03-16T08:12:14.881Z,6.19
2023-03-16T08:13:15.057Z,6.17
2023-03-16T08:14:14.883Z,6.19
2023-03-16T08:15:14.884Z,6.20
2023-03-16T08:16:14.889Z,6.19
2023-03-16T08:17:14.857Z,6.26
2023-03-16T08:18:15.482Z,6.17
2023-03-16T08:19:14.856Z,6.28
2023-03-16T08:20:14.840Z,6.28
2023-03-16T08:21:14.800Z,6.26
2023-03-16T08:22:14.778Z,6.17
2023-03-16T08:23:14.751Z,6.09
2023-03-16T08:24:14.761Z,6.17
2023-03-16T08:25:14.765Z,6.17
2023-03-16T08:26:14.768Z,6.26
2023-03-16T08:27:14.842Z,6.35
2023-03-16T08:28:14.777Z,6.49
2023-03-16T08:29:14.728Z,6.56
2023-03-16T08:30:14.697Z,6.54
2023-03-16T08:31:14.902Z,6.64
2023-03-16T08:32:14.705Z,6.74
2023-03-16T08:33:14.658Z,6.75
2023-03-16T08:34:14.666Z,6.50
2023-03-16T08:35:14.639Z,6.57
2023-03-16T08:36:14.646Z,6.74
2023-03-16T08:37:14.620Z,6.86
2023-03-16T08:38:14.596Z,6.87
2023-03-16T08:39:14.597Z,6.97
2023-03-16T08:40:14.687Z,7.07
2023-03-16T08:41:14.568Z,7.14
2023-03-16T08:42:14.643Z,7.19
2023-03-16T08:43:14.560Z,7.22
2023-03-16T08:44:14.579Z,7.18
2023-03-16T08:45:14.600Z,7.18
2023-03-16T08:46:14.527Z,7.03
2023-03-16T08:47:14.508Z,6.87
2023-03-16T08:48:14.493Z,6.90
2023-03-16T08:49:14.498Z,6.92
2023-03-16T08:50:14.469Z,6.85
2023-03-16T08:51:14.496Z,6.92
2023-03-16T08:52:14.538Z,6.96
2023-03-16T08:53:14.458Z,7.26
2023-03-16T08:54:14.459Z,7.40
2023-03-16T08:55:15.206Z,7.59
2023-03-16T08:56:14.452Z,7.62
2023-03-16T08:57:14.394Z,7.70
2023-03-16T08:58:14.373Z,7.58
2023-03-16T08:59:27.265Z,7.67
2023-03-16T09:00:14.361Z,7.70
2023-03-16T09:01:14.341Z,7.78
2023-03-16T09:02:14.628Z,7.77
2023-03-16T09:03:14.585Z,7.61
2023-03-16T09:04:14.392Z,7.64
2023-03-16T09:05:14.333Z,7.70
2023-03-16T09:06:14.357Z,7.66
2023-03-16T09:07:14.348Z,7.67
2023-03-16T09:08:14.289Z,7.67
2023-03-16T09:09:14.431Z,7.72
2023-03-16T09:10:14.317Z,7.64
2023-03-16T09:11:14.412Z,7.53
2023-03-16T09:12:14.221Z,7.58
2023-03-16T09:13:14.235Z,7.69
2023-03-16T09:14:14.231Z,7.74
2023-03-16T09:15:14.257Z,7.83
2023-03-16T09:16:14.251Z,7.87
2023-03-16T09:17:14.190Z,7.69
2023-03-16T09:18:14.227Z,7.58
2023-03-16T09:19:14.194Z,7.59
2023-03-16T09:20:34.743Z,7.69
2023-03-16T09:21:14.142Z,7.72
2023-03-16T09:22:14.121Z,7.66
2023-03-16T09:23:14.148Z,7.47
2023-03-16T09:24:14.163Z,7.41
2023-03-16T09:25:14.137Z,7.46
2023-03-16T09:26:14.280Z,7.59
2023-03-16T09:27:14.263Z,7.55
2023-03-16T09:28:14.084Z,7.56
2023-03-16T09:29:14.072Z,7.66
2023-03-16T09:30:14.043Z,7.62
2023-03-16T09:31:14.149Z,7.56
2023-03-16T09:32:14.027Z,7.58
2023-03-16T09:33:14.016Z,7.69
2023-03-16T09:34:14.861Z,7.88
2023-03-16T09:35:13.991Z,8.09
2023-03-16T09:36:14.001Z,8.42
2023-03-16T09:37:14.024Z,8.63
2023-03-16T09:38:14.957Z,8.97
2023-03-16T09:39:13.961Z,9.16
2023-03-16T09:40:13.961Z,9.18
2023-03-16T09:41:13.932Z,9.03
2023-03-16T09:42:13.933Z,9.05
2023-03-16T09:43:13.906Z,9.29
2023-03-16T09:44:41.220Z,9.21
2023-03-16T09:45:13.895Z,9.47
2023-03-16T09:46:30.432Z,9.95
2023-03-16T09:47:13.881Z,10.57
2023-03-16T09:48:13.862Z,11.22
2023-03-16T09:49:13.907Z,11.76
2023-03-16T09:50:13.899Z,12.07
2023-03-16T09:56:42.740Z,12.43
2023-03-16T09:56:49.444Z,11.35
2023-03-16T09:57:49.557Z,11.15
2023-03-16T09:59:04.017Z,10.79
2023-03-16T10:00:09.466Z,10.87
2023-03-16T10:00:47.741Z,10.84
2023-03-16T10:01:47.699Z,11.10
2023-03-16T10:02:47.692Z,10.94
2023-03-16T10:03:47.684Z,10.62
2023-03-16T10:04:47.666Z,10.05
2023-03-16T10:05:47.628Z,9.84
2023-03-16T10:06:47.612Z,9.81
2023-03-16T10:07:47.587Z,9.90
2023-03-16T10:08:49.510Z,9.84
2023-03-16T10:09:47.609Z,9.80
2023-03-16T10:10:47.573Z,9.62
2023-03-16T10:11:47.564Z,9.64
2023-03-16T10:12:47.548Z,9.90
2023-03-16T10:13:47.533Z,9.87
2023-03-16T10:14:47.577Z,9.91
2023-03-16T10:15:47.614Z,9.91
2023-03-16T10:16:47.562Z,9.76
2023-03-16T10:17:49.242Z,9.81
2023-03-16T10:18:47.536Z,9.74
2023-03-16T10:19:47.483Z,9.70
2023-03-16T10:20:47.470Z,9.44
2023-03-16T10:21:47.486Z,9.36
2023-03-16T10:22:47.616Z,9.39
2023-03-16T10:23:49.542Z,9.29
2023-03-16T10:24:47.517Z,9.29
2023-03-16T10:26:02.173Z,9.39
2023-03-16T10:26:47.390Z,9.54
2023-03-16T10:27:47.374Z,9.76
2023-03-16T10:28:47.360Z,9.76
2023-03-16T10:29:47.356Z,9.80
2023-03-16T10:30:47.357Z,9.80
2023-03-16T10:31:47.470Z,9.77
2023-03-16T10:32:47.389Z,9.74
2023-03-16T10:33:47.306Z,9.63
2023-03-16T10:34:47.318Z,9.52
2023-03-16T10:35:47.280Z,9.40
2023-03-16T10:36:47.329Z,9.16
2023-03-16T10:37:47.264Z,9.12
2023-03-16T10:38:47.260Z,9.11
2023-03-16T10:39:47.252Z,9.12
2023-03-16T10:40:47.244Z,9.29
2023-03-16T10:41:47.223Z,9.39
2023-03-16T10:42:47.220Z,9.58
2023-03-16T10:43:47.197Z,9.73
2023-03-16T10:44:47.210Z,9.95
2023-03-16T10:45:47.236Z,10.20
2023-03-16T10:46:47.353Z,10.24
2023-03-16T10:47:47.166Z,10.24
2023-03-16T10:48:47.157Z,10.20
2023-03-16T10:49:47.178Z,10.17
2023-03-16T10:50:47.130Z,10.12
2023-03-16T10:51:47.129Z,10.25
2023-03-16T10:52:47.113Z,10.21
2023-03-16T10:53:47.096Z,10.20
2023-03-16T10:54:47.087Z,10.38
2023-03-16T10:55:47.082Z,10.39
2023-03-16T10:56:47.070Z,10.30
2023-03-16T10:57:47.051Z,10.33
2023-03-16T10:58:47.058Z,10.36
2023-03-16T10:59:47.034Z,10.55
2023-03-16T11:00:47.043Z,10.46
2023-03-16T11:01:47.020Z,10.57
2023-03-16T11:02:47.020Z,10.58
2023-03-16T11:03:47.025Z,10.75
2023-03-16T11:04:47.021Z,10.87
2023-03-16T11:05:46.984Z,11.00
2023-03-16T11:06:46.968Z,11.30
2023-03-16T11:07:46.966Z,11.73
2023-03-16T11:08:46.956Z,11.96
2023-03-16T11:09:46.936Z,11.71
2023-03-16T11:10:55.647Z,11.43
2023-03-16T11:11:46.948Z,11.38
2023-03-16T11:12:46.921Z,11.26
2023-03-16T11:13:46.912Z,11.37
2023-03-16T11:14:46.891Z,11.59
2023-03-16T11:15:46.874Z,11.85
2023-03-16T11:16:46.985Z,12.15
2023-03-16T11:17:46.847Z,12.58
2023-03-16T11:18:46.854Z,12.86
2023-03-16T11:19:48.570Z,12.78
2023-03-16T11:20:46.825Z,12.98
2023-03-16T11:21:46.807Z,13.05
2023-03-16T11:22:46.792Z,12.72
2023-03-16T11:23:46.809Z,12.48
2023-03-16T11:24:46.783Z,12.61
2023-03-16T11:25:46.766Z,12.66
2023-03-16T11:26:48.334Z,12.54
2023-03-16T11:27:46.745Z,12.20
2023-03-16T11:28:46.737Z,12.15
2023-03-16T11:29:46.714Z,12.32
2023-03-16T11:30:46.753Z,12.48
2023-03-16T11:31:46.708Z,12.66
2023-03-16T11:32:46.713Z,12.86
2023-03-16T11:33:46.694Z,13.65
2023-03-16T11:34:46.676Z,14.87
2023-03-16T11:35:58.002Z,15.43
2023-03-16T11:36:46.695Z,15.73
2023-03-16T11:37:46.644Z,15.75
2023-03-16T11:38:46.644Z,15.78
2023-03-16T11:39:46.615Z,15.92
2023-03-16T11:40:46.618Z,16.43
2023-03-16T11:41:46.614Z,17.10
2023-03-16T11:42:46.607Z,17.71
2023-03-16T11:43:46.564Z,17.75
2023-03-16T11:44:48.281Z,18.05
2023-03-16T11:45:46.587Z,17.59
2023-03-16T11:46:46.635Z,17.34
2023-03-16T11:47:46.561Z,16.86
2023-03-16T11:48:46.517Z,15.98
2023-03-16T11:49:46.539Z,15.59
2023-03-16T11:50:46.520Z,15.52
2023-03-16T11:51:46.492Z,15.80
2023-03-16T11:52:46.484Z,16.03
2023-03-16T11:53:46.457Z,15.67
2023-03-16T11:54:46.445Z,16.16
2023-03-16T11:55:46.447Z,16.06
2023-03-16T11:56:46.442Z,16.09
2023-03-16T11:57:46.445Z,15.83
2023-03-16T11:58:46.438Z,15.67
2023-03-16T11:59:55.318Z,15.05
2023-03-16T12:00:46.398Z,15.26
2023-03-16T12:01:58.180Z,14.97
2023-03-16T12:02:46.694Z,15.33
2023-03-16T12:03:46.355Z,15.11
2023-03-16T12:04:46.359Z,15.39
2023-03-16T12:05:46.542Z,15.69
2023-03-16T12:06:46.321Z,15.54
2023-03-16T12:07:46.308Z,14.63
2023-03-16T12:08:46.306Z,14.01
2023-03-16T12:09:46.283Z,14.13
2023-03-16T12:10:46.295Z,14.59
2023-03-16T12:11:46.409Z,14.99
2023-03-16T12:12:46.278Z,15.41
2023-03-16T12:13:46.308Z,16.02
2023-03-16T12:14:46.230Z,15.43
2023-03-16T12:15:46.305Z,15.55
2023-03-16T12:16:49.507Z,15.88
2023-03-16T12:17:46.197Z,16.31
2023-03-16T12:18:46.183Z,16.43
2023-03-16T12:19:46.173Z,16.62
2023-03-16T12:20:46.173Z,16.68
2023-03-16T12:21:46.152Z,16.62
2023-03-16T12:22:46.147Z,16.51
2023-03-16T12:23:46.125Z,16.95
2023-03-16T12:24:46.151Z,17.53
2023-03-16T12:25:46.138Z,18.18
2023-03-16T12:26:46.104Z,18.71
2023-03-16T12:27:46.093Z,19.11
2023-03-16T12:28:46.122Z,18.53
2023-03-16T12:29:46.063Z,18.64
2023-03-16T12:30:46.071Z,17.88
2023-03-16T12:31:46.082Z,16.74
2023-03-16T12:32:46.092Z,15.96
2023-03-16T12:33:46.054Z,15.92
2023-03-16T12:34:46.013Z,16.09
2023-03-16T12:35:46.065Z,15.45
2023-03-16T12:36:45.999Z,15.48
2023-03-16T12:37:45.995Z,15.27
2023-03-16T12:38:45.981Z,14.96
2023-03-16T12:39:45.965Z,14.58
2023-03-16T12:40:45.968Z,13.70
2023-03-16T12:41:45.953Z,13.03
2023-03-16T12:42:45.964Z,13.13
2023-03-16T12:43:45.969Z,13.45
2023-03-16T12:44:45.914Z,13.58
2023-03-16T12:45:45.923Z,13.58
2023-03-16T12:46:47.847Z,13.36
2023-03-16T12:47:45.877Z,13.16
2023-03-16T12:48:45.888Z,13.12
2023-03-16T12:49:45.850Z,12.95
2023-03-16T12:50:45.874Z,13.03
2023-03-16T12:51:45.834Z,13.23
2023-03-16T12:52:45.820Z,13.31
2023-03-16T12:53:45.802Z,13.05
2023-03-16T12:54:45.808Z,13.08
2023-03-16T12:55:45.817Z,13.03
2023-03-16T12:56:45.784Z,13.09
2023-03-16T12:57:45.757Z,13.13
2023-03-16T12:58:45.787Z,12.87
2023-03-16T12:59:45.766Z,12.83
2023-03-16T13:00:45.822Z,12.84
2023-03-16T13:01:45.734Z,12.80
2023-03-16T13:02:45.720Z,12.99
2023-03-16T13:03:45.730Z,13.08
2023-03-16T13:04:45.778Z,13.11
2023-03-16T13:05:45.710Z,13.21
2023-03-16T13:06:45.676Z,13.42
2023-03-16T13:07:45.653Z,13.58
2023-03-16T13:08:45.672Z,13.30
2023-03-16T13:09:45.634Z,13.11
2023-03-16T13:10:45.653Z,13.16
2023-03-16T13:11:45.639Z,13.12
2023-03-16T13:12:45.608Z,13.13
2023-03-16T13:13:45.612Z,12.93
2023-03-16T13:14:45.586Z,12.86
2023-03-16T13:15:45.587Z,12.80
2023-03-16T13:16:45.745Z,12.91
2023-03-16T13:17:45.601Z,12.86
2023-03-16T13:18:45.542Z,12.80
2023-03-16T13:19:45.530Z,12.78
2023-03-16T13:20:45.528Z,12.98
2023-03-16T13:21:45.551Z,13.09
2023-03-16T13:22:45.495Z,13.02
2023-03-16T13:23:45.483Z,13.13
2023-03-16T13:24:45.477Z,13.11
2023-03-16T13:25:45.593Z,13.12
2023-03-16T13:26:45.458Z,13.28
2023-03-16T13:27:45.432Z,13.50
2023-03-16T13:28:45.446Z,13.58
2023-03-16T13:29:45.436Z,13.62
2023-03-16T13:30:45.474Z,13.65
2023-03-16T13:31:45.458Z,13.55
2023-03-16T13:32:45.451Z,13.45
2023-03-16T13:33:45.369Z,13.40
2023-03-16T13:34:45.376Z,13.60
2023-03-16T13:35:45.471Z,13.47
2023-03-16T13:36:45.424Z,13.49
2023-03-16T13:37:45.340Z,13.49
2023-03-16T13:38:45.340Z,13.37
2023-03-16T13:39:45.317Z,13.33
2023-03-16T13:40:45.317Z,13.57
2023-03-16T13:41:45.314Z,13.89
2023-03-16T13:42:45.298Z,13.94
2023-03-16T13:43:45.269Z,14.13
2023-03-16T13:44:45.267Z,14.38
2023-03-16T13:45:45.281Z,14.45
2023-03-16T13:46:45.265Z,15.22
2023-03-16T13:47:45.264Z,15.83
2023-03-16T13:48:45.235Z,16.44
2023-03-16T13:49:45.217Z,16.89
2023-03-16T13:50:45.208Z,16.69
2023-03-16T13:51:45.184Z,17.30
2023-03-16T13:52:45.173Z,17.65
2023-03-16T13:53:45.157Z,17.10
2023-03-16T13:54:45.180Z,17.34
2023-03-16T13:55:45.145Z,17.32
2023-03-16T13:56:45.202Z,16.97
2023-03-16T13:57:45.140Z,16.94
2023-03-16T13:58:45.112Z,16.72
2023-03-16T13:59:45.103Z,16.40
2023-03-16T14:00:45.130Z,16.32
2023-03-16T14:01:45.089Z,15.72
2023-03-16T14:02:45.106Z,16.03
2023-03-16T14:03:45.051Z,16.21
2023-03-16T14:04:45.042Z,16.24
2023-03-16T14:05:45.044Z,15.91
2023-03-16T14:06:45.020Z,16.00
2023-03-16T14:07:45.038Z,16.13
2023-03-16T14:08:44.993Z,16.31
2023-03-16T14:09:44.993Z,16.57
2023-03-16T14:10:44.988Z,16.98
2023-03-16T14:11:44.977Z,17.19
2023-03-16T14:12:44.951Z,16.32
2023-03-16T14:13:44.957Z,15.75
2023-03-16T14:14:44.931Z,15.11
2023-03-16T14:15:44.983Z,15.02
2023-03-16T14:16:44.917Z,15.48
2023-03-16T14:17:44.940Z,16.08
2023-03-16T14:18:44.942Z,16.37
2023-03-16T14:19:44.890Z,15.73
2023-03-16T14:20:44.888Z,15.37
2023-03-16T14:21:44.864Z,15.47
2023-03-16T14:22:44.862Z,16.40
2023-03-16T14:23:44.853Z,16.82
2023-03-16T14:24:44.834Z,17.04
2023-03-16T14:25:44.831Z,16.86
2023-03-16T14:26:44.814Z,16.37
2023-03-16T14:27:44.804Z,16.41
2023-03-16T14:28:44.788Z,16.09
2023-03-16T14:29:44.785Z,16.22
2023-03-16T14:30:44.859Z,16.49
2023-03-16T14:31:44.798Z,16.57
2023-03-16T14:32:44.766Z,16.43
2023-03-16T14:33:44.734Z,16.41
2023-03-16T14:34:44.743Z,16.03
2023-03-16T14:35:44.835Z,15.94
2023-03-16T14:36:44.697Z,16.39
2023-03-16T14:37:44.695Z,16.31
2023-03-16T14:38:44.679Z,16.51
2023-03-16T14:39:44.686Z,16.49
2023-03-16T14:40:44.729Z,16.12
2023-03-16T14:41:44.657Z,16.09
2023-03-16T14:42:44.634Z,16.50
2023-03-16T14:43:44.643Z,16.46
2023-03-16T14:44:44.631Z,15.85
2023-03-16T14:45:44.649Z,15.51
2023-03-16T14:46:44.605Z,15.37
2023-03-16T14:47:44.597Z,15.48
2023-03-16T14:48:44.567Z,15.75
2023-03-16T14:49:44.570Z,15.78
2023-03-16T14:50:44.595Z,15.81
2023-03-16T14:51:44.539Z,16.34
2023-03-16T14:52:44.547Z,16.50
2023-03-16T14:53:44.600Z,16.18
2023-03-16T14:54:44.501Z,16.13
2023-03-16T14:55:44.512Z,15.92
2023-03-16T14:56:44.503Z,15.85
2023-03-16T14:57:44.515Z,16.17
2023-03-16T14:58:44.474Z,16.47
2023-03-16T14:59:44.484Z,16.95
2023-03-16T15:00:52.762Z,16.97
2023-03-16T15:01:44.517Z,17.04
2023-03-16T15:02:44.461Z,16.22
2023-03-16T15:03:44.407Z,15.85
2023-03-16T15:04:44.400Z,15.69
2023-03-16T15:05:44.428Z,16.00
2023-03-16T15:06:44.384Z,15.90
2023-03-16T15:07:44.416Z,15.83
2023-03-16T15:08:44.421Z,15.70
2023-03-16T15:09:44.352Z,15.25
2023-03-16T15:10:44.343Z,15.18
2023-03-16T15:11:44.341Z,14.86
2023-03-16T15:12:44.323Z,15.15
2023-03-16T15:13:46.868Z,14.86
2023-03-16T15:14:44.305Z,14.45
2023-03-16T15:15:44.326Z,14.31
2023-03-16T15:16:44.301Z,13.98
2023-03-16T15:17:44.268Z,13.55
2023-03-16T15:18:44.266Z,13.42
2023-03-16T15:19:44.257Z,13.57
2023-03-16T15:20:44.223Z,13.78
2023-03-16T15:21:44.243Z,13.95
2023-03-16T15:22:44.204Z,14.04
2023-03-16T15:23:44.212Z,14.43
2023-03-16T15:24:44.286Z,14.87
2023-03-16T15:25:44.177Z,14.82
2023-03-16T15:26:44.174Z,14.87
2023-03-16T15:27:44.158Z,15.26
2023-03-16T15:28:44.145Z,15.59
2023-03-16T15:29:44.144Z,15.83
2023-03-16T15:30:44.117Z,16.34
2023-03-16T15:31:44.174Z,16.49
2023-03-16T15:32:44.122Z,16.77
2023-03-16T15:33:44.110Z,16.80
2023-03-16T15:34:44.071Z,16.73
2023-03-16T15:35:44.169Z,16.00
2023-03-16T15:36:44.073Z,15.14
2023-03-16T15:37:44.042Z,15.04
2023-03-16T15:38:44.030Z,15.14
2023-03-16T15:39:44.043Z,14.66
2023-03-16T15:40:44.125Z,14.45
2023-03-16T15:41:47.807Z,14.12
2023-03-16T15:42:46.435Z,14.16
2023-03-16T15:43:43.988Z,13.95
2023-03-16T15:44:43.970Z,13.94
2023-03-16T15:45:43.957Z,13.94
2023-03-16T15:46:44.004Z,14.04
2023-03-16T15:47:43.934Z,14.53
2023-03-16T15:48:43.925Z,14.74
2023-03-16T15:49:48.067Z,14.55
2023-03-16T15:50:43.909Z,14.79
2023-03-16T15:51:43.914Z,14.79
2023-03-16T15:52:43.876Z,14.61
2023-03-16T15:53:43.879Z,14.52
2023-03-16T15:54:43.863Z,13.94
2023-03-16T15:55:43.861Z,13.55
2023-03-16T15:56:53.814Z,13.23
2023-03-16T15:57:43.840Z,13.11
2023-03-16T15:58:43.810Z,13.06
2023-03-16T15:59:43.809Z,12.95
2023-03-16T16:00:43.830Z,12.91
2023-03-16T16:01:43.807Z,12.84
2023-03-16T16:02:43.802Z,12.75
2023-03-16T16:03:43.826Z,12.69
2023-03-16T16:04:43.783Z,12.72
2023-03-16T16:05:43.728Z,12.72
2023-03-16T16:06:43.742Z,12.53
2023-03-16T16:07:43.717Z,12.43
2023-03-16T16:08:43.690Z,12.40
2023-03-16T16:09:43.682Z,12.36
2023-03-16T16:10:43.685Z,12.33
2023-03-16T16:11:43.704Z,12.28
2023-03-16T16:12:43.644Z,12.29
2023-03-16T16:13:45.143Z,12.32
2023-03-16T16:14:43.631Z,12.35
2023-03-16T16:15:43.621Z,12.36
2023-03-16T16:16:43.673Z,12.47
2023-03-16T16:17:56.781Z,12.51
2023-03-16T16:18:43.597Z,12.53
2023-03-16T16:19:43.577Z,12.43
2023-03-16T16:20:43.582Z,12.39
2023-03-16T16:21:43.565Z,12.36
2023-03-16T16:22:43.540Z,12.30
2023-03-16T16:23:43.536Z,12.29
2023-03-16T16:24:43.541Z,12.32
2023-03-16T16:25:43.510Z,12.29
2023-03-16T16:26:58.757Z,12.25
2023-03-16T16:27:43.493Z,12.21
2023-03-16T16:28:43.480Z,12.15
2023-03-16T16:29:43.485Z,12.12
2023-03-16T16:30:43.499Z,12.08
2023-03-16T16:31:43.514Z,12.11
2023-03-16T16:32:43.523Z,12.08
2023-03-16T16:33:43.439Z,12.03
2023-03-16T16:34:44.758Z,12.07
2023-03-16T16:35:43.446Z,11.99
2023-03-16T16:36:43.409Z,12.02
2023-03-16T16:37:43.387Z,12.03
2023-03-16T16:38:43.361Z,12.11
2023-03-16T16:39:43.357Z,12.05
2023-03-16T16:40:43.351Z,11.97